Time;durP1;ratioP1;P1;durP2;ratioP2;P2;SDS_P1;SDS_P2;PMS_P1;PMS_P2;Temp;Humidity;BMP_temperature;BMP_pressure;BME280_temperature;BME280_humidity;BME280_pressure;Samples;Min_cycle;Max_cycle;Signal;HPM_P1;HPM_P2
2023/11/21 00:01:42;;;;;;;22.00;16.73;;;;;;;15.28;68.66;98477.31;5093530;28;20603;-48
2023/11/21 00:04:07;;;;;;;24.95;16.10;;;;;;;14.89;68.53;98474.44;5093558;28;20050;-47
2023/11/21 00:06:34;;;;;;;28.55;18.38;;;;;;;14.47;69.12;98473.78;5093444;28;20043;-47
2023/11/21 00:09:00;;;;;;;27.25;24.00;;;;;;;14.16;70.56;98478.34;5093450;28;20028;-47
2023/11/21 00:11:25;;;;;;;22.98;20.55;;;;;;;14.01;71.15;98473.53;5092048;28;20024;-47
2023/11/21 00:13:51;;;;;;;28.60;23.80;;;;;;;13.98;71.54;98473.97;5092991;28;20436;-47
2023/11/21 00:16:18;;;;;;;40.60;36.53;;;;;;;13.74;71.44;98470.47;5093443;28;20024;-47
2023/11/21 00:18:43;;;;;;;27.95;22.17;;;;;;;13.37;71.87;98465.34;5092229;28;20498;-46
2023/11/21 00:21:09;;;;;;;44.30;39.70;;;;;;;13.16;72.70;98472.69;5093426;28;20024;-47
2023/11/21 00:23:35;;;;;;;24.63;16.80;;;;;;;13.25;73.76;98465.25;5093204;28;20116;-47
2023/11/21 00:26:01;;;;;;;24.13;14.52;;;;;;;13.63;74.13;98468.63;5093073;28;20016;-47
2023/11/21 00:28:26;;;;;;;35.90;32.03;;;;;;;13.94;72.57;98478.09;5093091;28;20048;-47
2023/11/21 00:30:52;;;;;;;20.95;14.82;;;;;;;14.06;71.75;98483.41;5093052;28;20020;-47
2023/11/21 00:33:18;;;;;;;20.58;14.65;;;;;;;13.77;70.37;98475.31;5092962;28;20020;-47
2023/11/21 00:35:43;;;;;;;29.55;21.13;;;;;;;13.23;70.00;98471.78;5092919;28;20020;-47
2023/11/21 00:38:09;;;;;;;27.17;18.65;;;;;;;12.75;71.49;98471.50;5093156;28;20028;-47
2023/11/21 00:40:35;;;;;;;17.48;13.32;;;;;;;12.42;72.55;98463.19;5092594;28;20020;-47
2023/11/21 00:43:01;;;;;;;23.98;21.45;;;;;;;12.05;72.85;98461.25;5092835;28;20082;-47
2023/11/21 00:45:26;;;;;;;28.52;25.65;;;;;;;11.75;74.57;98464.50;5093018;28;20024;-47
2023/11/21 00:47:52;;;;;;;16.63;12.25;;;;;;;11.73;75.27;98463.09;5092750;28;20394;-47
2023/11/21 00:50:19;;;;;;;20.45;12.77;;;;;;;11.51;74.85;98457.38;5092653;28;20533;-47
2023/11/21 00:52:44;;;;;;;18.15;11.98;;;;;;;11.32;75.71;98448.59;5091253;28;20035;-49
2023/11/21 00:55:12;;;;;;;17.38;14.50;;;;;;;11.24;76.11;98454.91;5092540;28;20021;-49
2023/11/21 00:57:37;;;;;;;24.48;16.95;;;;;;;11.26;77.31;98449.44;5091356;28;20027;-49
2023/11/21 01:00:13;;;;;;;17.00;12.93;;;;;;;11.30;77.32;98451.44;5092525;28;20024;-49
2023/11/21 01:02:39;;;;;;;18.33;15.55;;;;;;;11.44;77.89;98448.75;5091384;28;20397;-49
2023/11/21 01:05:07;;;;;;;17.45;14.90;;;;;;;11.43;77.14;98450.56;5092456;28;20020;-49
2023/11/21 01:07:33;;;;;;;24.42;17.35;;;;;;;11.35;78.15;98454.25;5092327;28;20024;-49
2023/11/21 01:09:59;;;;;;;27.90;19.02;;;;;;;11.74;78.52;98457.63;5092529;28;20371;-49
2023/11/21 01:12:24;;;;;;;19.63;16.30;;;;;;;11.79;77.24;98455.19;5090843;28;20032;-50
2023/11/21 01:14:51;;;;;;;16.58;10.65;;;;;;;11.95;78.41;98445.97;5090731;28;20055;-50
2023/11/21 01:17:18;;;;;;;14.70;12.95;;;;;;;12.47;77.13;98456.22;5090886;28;20499;-49
2023/11/21 01:19:43;;;;;;;15.45;12.18;;;;;;;12.53;75.45;98455.34;5092216;28;20023;-49
2023/11/21 01:22:12;;;;;;;15.45;12.30;;;;;;;12.18;73.91;98450.63;5092151;28;20097;-50
2023/11/21 01:24:37;;;;;;;14.75;8.55;;;;;;;11.74;74.45;98456.81;5092046;28;20494;-49
2023/11/21 01:27:04;;;;;;;18.27;11.82;;;;;;;11.67;75.51;98456.06;5092045;28;20016;-49
2023/11/21 01:29:30;;;;;;;14.70;10.60;;;;;;;11.54;75.10;98456.97;5090699;28;20649;-49
2023/11/21 01:31:57;;;;;;;18.33;15.75;;;;;;;11.23;75.06;98455.09;5091978;28;20020;-49
2023/11/21 01:34:23;;;;;;;16.75;11.93;;;;;;;10.88;75.12;98453.63;5091936;28;20024;-49
2023/11/21 01:36:49;;;;;;;16.50;12.23;;;;;;;10.50;76.16;98454.38;5091931;28;20024;-49
2023/11/21 01:39:16;;;;;;;15.90;11.02;;;;;;;10.16;76.93;98452.75;5091984;28;20043;-49
2023/11/21 01:41:44;;;;;;;18.27;11.73;;;;;;;9.95;78.21;98451.16;5090559;28;20513;-49
2023/11/21 01:44:10;;;;;;;21.30;16.33;;;;;;;9.82;79.20;98445.91;5091921;28;20035;-49
2023/11/21 01:46:37;;;;;;;27.33;23.80;;;;;;;9.60;80.05;98438.25;5090475;28;20054;-50
2023/11/21 01:49:03;;;;;;;19.65;13.02;;;;;;;9.32;81.16;98435.78;5091861;28;20074;-49
2023/11/21 01:51:29;;;;;;;17.33;10.35;;;;;;;9.10;82.32;98430.69;5091730;28;20028;-49
2023/11/21 01:53:55;;;;;;;16.23;11.75;;;;;;;9.04;83.84;98430.69;5095640;28;20033;-49
2023/11/21 01:56:21;;;;;;;33.20;29.77;;;;;;;9.16;85.06;98422.06;5095922;28;20024;-49
2023/11/21 01:58:47;;;;;;;22.35;12.48;;;;;;;9.40;85.12;98414.66;5096247;28;20500;-49
2023/11/21 02:01:14;;;;;;;15.05;11.30;;;;;;;9.61;85.05;98413.66;5095898;28;20668;-49
2023/11/21 02:03:39;;;;;;;16.85;11.27;;;;;;;9.67;83.74;98410.22;5095760;28;20043;-49
2023/11/21 02:06:05;;;;;;;20.58;13.85;;;;;;;9.94;84.76;98407.59;5095834;28;20028;-49
2023/11/21 02:08:31;;;;;;;16.48;10.90;;;;;;;10.33;83.98;98400.72;5095766;28;20056;-49
2023/11/21 02:10:57;;;;;;;16.85;11.00;;;;;;;10.64;83.41;98401.84;5095720;28;20231;-49
2023/11/21 02:13:23;;;;;;;25.75;23.05;;;;;;;11.38;83.44;98406.50;5095630;28;20500;-49
2023/11/21 02:15:52;;;;;;;15.90;9.77;;;;;;;12.13;80.56;98399.69;5094081;28;20071;-49
2023/11/21 02:18:18;;;;;;;14.60;11.25;;;;;;;12.52;77.67;98398.47;5095474;28;20065;-50
2023/11/21 02:20:43;;;;;;;10.57;8.93;;;;;;;12.79;75.98;98398.94;5094229;28;20027;-49
2023/11/21 02:23:09;;;;;;;17.05;9.70;;;;;;;13.00;74.07;98389.00;5095500;28;20166;-49
2023/11/21 02:25:37;;;;;;;14.82;12.73;;;;;;;13.19;73.42;98390.53;5094076;28;20031;-49
2023/11/21 02:28:03;;;;;;;23.55;18.02;;;;;;;13.27;72.74;98392.03;5095362;28;20016;-49
2023/11/21 02:30:33;;;;;;;66.70;60.47;;;;;;;13.44;72.60;98394.06;5095333;28;20028;-49
2023/11/21 02:33:00;;;;;;;257.48;234.48;;;;;;;13.25;73.03;98396.75;5093881;28;20029;-49
2023/11/21 02:35:26;;;;;;;77.05;69.10;;;;;;;12.97;74.62;98384.94;5095213;28;20020;-49
2023/11/21 02:37:53;;;;;;;153.25;141.02;;;;;;;12.56;75.07;98389.13;5093861;28;20036;-49
2023/11/21 02:40:20;;;;;;;30.75;27.83;;;;;;;12.13;76.08;98387.34;5095181;28;20024;-49
2023/11/21 02:42:50;;;;;;;17.90;13.13;;;;;;;11.95;78.66;98390.75;5095179;28;20131;-48
2023/11/21 02:45:17;;;;;;;33.30;29.65;;;;;;;11.84;81.13;98390.63;5095156;28;20039;-48
2023/11/21 02:47:44;;;;;;;126.78;114.80;;;;;;;11.73;83.66;98390.31;5095338;28;20046;-47
2023/11/21 02:50:10;;;;;;;157.82;141.98;;;;;;;11.42;84.62;98387.72;5093739;28;20035;-47
2023/11/21 02:52:35;;;;;;;175.60;157.43;;;;;;;11.03;86.52;98393.00;5094902;28;20452;-47
2023/11/21 02:55:03;;;;;;;121.20;109.82;;;;;;;10.64;88.02;98401.84;5094909;28;20111;-47
2023/11/21 02:57:29;;;;;;;207.40;187.82;;;;;;;10.46;90.45;98395.44;5094832;28;20024;-47
2023/11/21 02:59:54;;;;;;;60.70;54.70;;;;;;;10.27;91.93;98393.66;5094835;28;20078;-47
2023/11/21 03:02:20;;;;;;;89.75;80.60;;;;;;;10.02;93.48;98396.94;5094754;28;20053;-47
2023/11/21 03:04:49;;;;;;;157.07;141.98;;;;;;;9.93;95.29;98396.31;5093321;28;20089;-47
2023/11/21 03:07:15;;;;;;;198.50;179.30;;;;;;;9.96;97.58;98395.94;5094627;28;20501;-47
2023/11/21 03:09:41;;;;;;;59.63;53.15;;;;;;;10.00;99.33;98394.50;5093337;28;20428;-47
2023/11/21 03:12:09;;;;;;;26.20;19.48;;;;;;;10.06;100.00;98399.94;5094620;28;20019;-47
2023/11/21 03:14:35;;;;;;;24.50;21.02;;;;;;;10.03;100.00;98395.13;5092984;28;20044;-46
2023/11/21 03:17:05;;;;;;;22.00;18.08;;;;;;;9.98;100.00;98390.50;5094446;28;20032;-47
2023/11/21 03:19:31;;;;;;;28.00;25.02;;;;;;;9.96;100.00;98395.09;5094435;28;20051;-47
2023/11/21 03:21:57;;;;;;;25.08;22.17;;;;;;;10.13;100.00;98391.06;5093075;28;20036;-47
2023/11/21 03:24:23;;;;;;;27.02;17.95;;;;;;;10.37;100.00;98394.06;5093020;28;20505;-47
2023/11/21 03:26:49;;;;;;;18.17;15.95;;;;;;;10.45;100.00;98393.84;5094236;28;20028;-47
2023/11/21 03:29:14;;;;;;;20.70;17.58;;;;;;;10.46;100.00;98387.56;5092947;28;20028;-47
2023/11/21 03:31:41;;;;;;;21.95;17.33;;;;;;;10.38;100.00;98382.53;5092814;28;20119;-46
2023/11/21 03:34:07;;;;;;;58.70;52.90;;;;;;;10.28;100.00;98384.75;5094084;28;20016;-46
2023/11/21 03:36:32;;;;;;;38.00;32.50;;;;;;;10.16;100.00;98379.34;5075873;28;20447;-47
2023/11/21 03:38:58;;;;;;;22.45;17.58;;;;;;;10.03;100.00;98379.38;5094052;28;20031;-47
2023/11/21 03:41:24;;;;;;;36.53;32.80;;;;;;;9.93;100.00;98387.66;5092662;28;20024;-46
2023/11/21 03:43:50;;;;;;;21.30;14.02;;;;;;;9.87;100.00;98389.25;5093977;28;20055;-46
2023/11/21 03:46:16;;;;;;;46.08;37.33;;;;;;;9.92;100.00;98388.66;5093860;28;20060;-47
2023/11/21 03:48:42;;;;;;;20.75;14.90;;;;;;;9.97;100.00;98389.66;5092514;28;20032;-46
2023/11/21 03:51:08;;;;;;;22.08;15.18;;;;;;;9.97;100.00;98386.25;5092493;28;20035;-46
2023/11/21 03:53:35;;;;;;;23.83;21.63;;;;;;;10.07;100.00;98380.59;5092391;28;20028;-47
2023/11/21 03:56:03;;;;;;;218.05;197.20;;;;;;;10.11;100.00;98385.22;5093659;28;20024;-47
2023/11/21 03:58:30;;;;;;;23.75;18.40;;;;;;;10.17;100.00;98383.59;5092363;28;20028;-47
2023/11/21 04:00:55;;;;;;;30.27;27.45;;;;;;;10.28;100.00;98382.13;5092288;28;20114;-47
2023/11/21 04:03:21;;;;;;;89.30;81.30;;;;;;;10.18;100.00;98372.91;5093529;28;20443;-47
2023/11/21 04:05:47;;;;;;;26.75;17.42;;;;;;;10.07;100.00;98372.72;5093507;28;20401;-47
2023/11/21 04:08:13;;;;;;;96.72;87.72;;;;;;;10.11;100.00;98377.34;5092115;28;20069;-46
2023/11/21 04:10:39;;;;;;;13.93;11.65;;;;;;;10.31;100.00;98379.94;5093396;28;20502;-46
2023/11/21 04:13:06;;;;;;;22.20;15.60;;;;;;;10.72;100.00;98375.38;5093329;28;20023;-46
2023/11/21 04:15:32;;;;;;;16.23;10.68;;;;;;;10.93;100.00;98379.53;5092468;28;20055;-46
2023/11/21 04:17:58;;;;;;;171.93;157.73;;;;;;;11.05;100.00;98377.84;5091984;28;20128;-46
2023/11/21 04:20:24;;;;;;;21.63;19.30;;;;;;;11.18;100.00;98375.13;5091895;28;20082;-46
2023/11/21 04:22:50;;;;;;;19.48;15.13;;;;;;;11.24;100.00;98372.66;5109002;28;20043;-46
2023/11/21 04:25:16;;;;;;;14.27;11.73;;;;;;;11.05;100.00;98377.84;5108902;28;20020;-46
2023/11/21 04:27:44;;;;;;;37.22;28.95;;;;;;;10.47;100.00;98372.66;5093017;28;20016;-46
2023/11/21 04:30:11;;;;;;;23.20;17.15;;;;;;;9.78;100.00;98372.94;5091741;28;20446;-46
2023/11/21 04:32:39;;;;;;;23.98;17.02;;;;;;;9.16;100.00;98382.78;5091663;28;20116;-46
2023/11/21 04:35:05;;;;;;;26.98;16.85;;;;;;;8.74;100.00;98379.44;5092947;28;20031;-46
2023/11/21 04:37:31;;;;;;;22.80;20.33;;;;;;;8.54;100.00;98381.16;5092920;28;20069;-46
2023/11/21 04:39:56;;;;;;;22.05;15.20;;;;;;;8.48;100.00;98385.38;5092915;28;20020;-46
2023/11/21 04:42:22;;;;;;;19.95;12.50;;;;;;;8.62;100.00;98382.81;5092861;28;20066;-46
2023/11/21 04:44:49;;;;;;;16.25;12.52;;;;;;;8.98;100.00;98393.00;5091462;28;20103;-47
2023/11/21 04:47:15;;;;;;;27.58;24.73;;;;;;;9.45;100.00;98391.28;5093041;28;20027;-46
2023/11/21 04:49:43;;;;;;;48.90;44.15;;;;;;;9.91;100.00;98387.06;5091409;28;20016;-46
2023/11/21 04:52:09;;;;;;;12.55;11.05;;;;;;;10.14;100.00;98383.97;5092700;28;20032;-46
2023/11/21 04:54:36;;;;;;;13.98;8.60;;;;;;;10.29;100.00;98389.00;5092544;28;20035;-46
2023/11/21 04:57:02;;;;;;;12.40;8.70;;;;;;;10.31;100.00;98379.94;5092590;28;20028;-46
2023/11/21 04:59:28;;;;;;;12.77;9.02;;;;;;;10.26;100.00;98381.53;5092569;28;20505;-46
2023/11/21 05:01:54;;;;;;;13.35;9.38;;;;;;;10.00;100.00;98389.25;5091166;28;20028;-46
2023/11/21 05:04:22;;;;;;;12.57;9.73;;;;;;;9.95;100.00;98396.13;5092447;28;20042;-46
2023/11/21 05:06:48;;;;;;;22.05;11.65;;;;;;;9.68;100.00;98383.03;5092393;28;20028;-45
2023/11/21 05:09:15;;;;;;;20.33;17.00;;;;;;;9.65;100.00;98383.44;5091028;28;20035;-46
2023/11/21 05:11:41;;;;;;;15.05;13.02;;;;;;;9.87;100.00;98385.84;5092349;28;20111;-46
2023/11/21 05:14:08;;;;;;;114.35;104.35;;;;;;;10.13;100.00;98385.00;5090610;28;20016;-46
2023/11/21 05:16:35;;;;;;;164.50;149.43;;;;;;;10.36;100.00;98381.94;5092334;28;20032;-46
2023/11/21 05:19:01;;;;;;;134.68;122.15;;;;;;;10.47;100.00;98377.91;5092454;28;20478;-46
2023/11/21 05:21:29;;;;;;;229.15;207.10;;;;;;;10.54;100.00;98382.13;5107911;28;20504;-45
2023/11/21 05:23:55;;;;;;;55.70;46.65;;;;;;;10.30;100.00;98380.97;5092177;28;20027;-45
2023/11/21 05:26:21;;;;;;;69.53;62.92;;;;;;;10.11;100.00;98377.34;5090372;28;20027;-45
2023/11/21 05:28:47;;;;;;;24.63;22.08;;;;;;;10.18;100.00;98377.31;5091863;28;20375;-46
2023/11/21 05:31:13;;;;;;;23.80;21.45;;;;;;;10.29;100.00;98371.44;5091979;28;20022;-46
2023/11/21 05:33:39;;;;;;;34.10;30.67;;;;;;;10.23;100.00;98372.28;5090598;28;20032;-46
2023/11/21 05:36:07;;;;;;;13.65;9.63;;;;;;;10.19;100.00;98371.88;5091969;28;20061;-45
2023/11/21 05:38:35;;;;;;;13.90;10.82;;;;;;;10.12;100.00;98370.28;5091994;28;20124;-45
2023/11/21 05:41:01;;;;;;;20.45;15.88;;;;;;;10.07;100.00;98372.72;5091838;28;20043;-45
2023/11/21 05:43:29;;;;;;;12.50;9.43;;;;;;;10.07;100.00;98370.91;5091978;28;20102;-46
2023/11/21 05:45:55;;;;;;;13.25;9.27;;;;;;;10.15;100.00;98378.53;5091942;28;20024;-45
2023/11/21 05:48:21;;;;;;;29.70;26.27;;;;;;;10.26;100.00;98378.91;5091856;28;20547;-45
2023/11/21 05:50:49;;;;;;;28.85;25.90;;;;;;;10.40;100.00;98372.66;5091856;28;20022;-46
2023/11/21 05:53:15;;;;;;;13.25;10.23;;;;;;;10.48;100.00;98377.66;5091731;28;20059;-46
2023/11/21 05:55:42;;;;;;;26.08;19.63;;;;;;;10.32;100.00;98376.31;5091742;28;20049;-46
2023/11/21 05:58:08;;;;;;;17.00;11.52;;;;;;;10.22;100.00;98372.47;5090431;28;20077;-45
2023/11/21 06:00:34;;;;;;;18.98;16.98;;;;;;;10.18;100.00;98375.53;5091781;28;20020;-46
2023/11/21 06:03:00;;;;;;;15.75;8.40;;;;;;;10.23;100.00;98376.72;5091975;28;20109;-45
2023/11/21 06:05:26;;;;;;;12.43;7.75;;;;;;;10.18;100.00;98372.91;5091670;28;20104;-45
2023/11/21 06:07:58;;;;;;;91.57;82.13;;;;;;;10.19;100.00;98373.69;5091704;28;20020;-45
2023/11/21 06:10:24;;;;;;;147.70;132.43;;;;;;;10.05;100.00;98370.28;5091828;28;20437;-45
2023/11/21 06:12:51;;;;;;;21.67;17.50;;;;;;;9.87;100.00;98370.91;5073557;28;20024;-45
2023/11/21 06:15:19;;;;;;;27.60;17.90;;;;;;;9.57;100.00;98373.16;5089976;28;20069;-45
2023/11/21 06:17:49;;;;;;;21.10;14.30;;;;;;;9.43;100.00;98377.56;5091603;28;20016;-45
2023/11/21 06:20:15;;;;;;;34.63;30.42;;;;;;;9.82;100.00;98378.59;5090242;28;20024;-45
2023/11/21 06:22:42;;;;;;;59.63;53.70;;;;;;;10.23;100.00;98379.34;5091519;28;20026;-45
2023/11/21 06:25:09;;;;;;;22.92;17.88;;;;;;;10.53;100.00;98370.00;5091483;28;20024;-45
2023/11/21 06:27:44;;;;;;;239.80;219.43;;;;;;;10.86;100.00;98376.13;5090194;28;20028;-45
2023/11/21 06:30:11;;;;;;;35.28;27.50;;;;;;;11.09;100.00;98386.91;5090252;28;20039;-45
2023/11/21 06:32:38;;;;;;;31.92;28.40;;;;;;;11.19;100.00;98382.00;5091332;28;20016;-45
2023/11/21 06:35:04;;;;;;;174.15;157.57;;;;;;;11.07;100.00;98382.88;5090106;28;20097;-45
2023/11/21 06:37:31;;;;;;;31.13;24.23;;;;;;;10.81;100.00;98382.00;5091354;28;20020;-45
2023/11/21 06:39:58;;;;;;;23.00;16.27;;;;;;;10.51;100.00;98384.34;5095033;28;20026;-45
2023/11/21 06:42:28;;;;;;;21.73;16.05;;;;;;;10.32;100.00;98388.63;5093832;28;20020;-45
2023/11/21 06:44:56;;;;;;;102.47;92.63;;;;;;;10.22;100.00;98383.75;5095113;28;20027;-45
2023/11/21 06:47:26;;;;;;;18.75;14.38;;;;;;;10.12;100.00;98399.13;5095088;28;20024;-45
2023/11/21 06:49:55;;;;;;;37.50;26.45;;;;;;;10.07;100.00;98391.88;5110430;28;20032;-45
2023/11/21 06:52:21;;;;;;;33.38;27.75;;;;;;;10.03;100.00;98395.13;5076692;28;20016;-45
2023/11/21 06:54:49;;;;;;;16.30;10.15;;;;;;;9.96;100.00;98385.44;5095007;28;20031;-45
2023/11/21 06:57:15;;;;;;;141.45;127.80;;;;;;;9.84;100.00;98386.25;5094863;28;20016;-45
2023/11/21 06:59:41;;;;;;;22.95;16.88;;;;;;;9.71;100.00;98389.69;5076639;28;20092;-45
2023/11/21 07:02:07;;;;;;;22.88;19.77;;;;;;;9.56;100.00;98384.66;5094727;28;20020;-45
2023/11/21 07:04:33;;;;;;;16.10;10.20;;;;;;;9.42;100.00;98380.38;5094698;28;20031;-45
2023/11/21 07:06:59;;;;;;;86.32;70.70;;;;;;;9.30;100.00;98382.81;5093668;28;20031;-45
2023/11/21 07:09:25;;;;;;;83.85;69.85;;;;;;;9.21;100.00;98379.56;5093363;28;20024;-45
2023/11/21 07:11:52;;;;;;;35.35;24.67;;;;;;;9.13;100.00;98383.16;5094531;28;20020;-45
2023/11/21 07:14:19;;;;;;;65.47;54.67;;;;;;;9.14;100.00;98381.38;5094225;28;20047;-46
2023/11/21 07:16:46;;;;;;;184.48;166.07;;;;;;;9.44;100.00;98379.19;5094755;28;20367;-45
2023/11/21 07:19:12;;;;;;;62.38;53.75;;;;;;;9.70;100.00;98385.44;5094515;28;20020;-45
2023/11/21 07:21:41;;;;;;;95.80;86.45;;;;;;;10.03;100.00;98382.00;5094418;28;20031;-45
2023/11/21 07:24:08;;;;;;;23.60;18.95;;;;;;;10.53;100.00;98375.25;5094395;28;20024;-46
2023/11/21 07:26:35;;;;;;;116.13;106.25;;;;;;;10.98;100.00;98377.84;5094507;28;20024;-45
2023/11/21 07:29:02;;;;;;;24.08;20.63;;;;;;;11.23;100.00;98377.13;5094566;28;20024;-46
2023/11/21 07:31:29;;;;;;;23.50;17.85;;;;;;;11.40;100.00;98382.66;5094200;28;20035;-46
2023/11/21 07:33:58;;;;;;;13.35;6.53;;;;;;;11.54;100.00;98386.00;5094348;28;20043;-46
2023/11/21 07:36:24;;;;;;;14.23;6.32;;;;;;;11.60;100.00;98383.31;5092846;28;20111;-46
2023/11/21 07:38:50;;;;;;;23.20;13.55;;;;;;;11.65;100.00;98382.69;5094115;28;20515;-46
2023/11/21 07:41:17;;;;;;;9.82;5.60;;;;;;;11.66;100.00;98380.84;5094084;28;20028;-46
2023/11/21 07:43:44;;;;;;;34.97;26.25;;;;;;;11.69;100.00;98385.69;5092713;28;20020;-46
2023/11/21 07:46:12;;;;;;;15.20;5.88;;;;;;;11.84;100.00;98378.28;5092586;28;20051;-47
2023/11/21 07:48:42;;;;;;;20.30;9.65;;;;;;;11.72;100.00;98388.69;5093842;28;20020;-46
2023/11/21 07:51:09;;;;;;;15.60;6.22;;;;;;;11.53;100.00;98392.25;5091662;28;20040;-46
2023/11/21 07:53:35;;;;;;;22.40;11.15;;;;;;;11.75;100.00;98392.69;5092376;28;20016;-46
2023/11/21 07:56:06;;;;;;;16.58;4.65;;;;;;;11.81;100.00;98397.09;5092423;28;20028;-46
2023/11/21 07:58:33;;;;;;;18.70;10.50;;;;;;;11.78;100.00;98394.91;5093747;28;20020;-46
2023/11/21 08:01:00;;;;;;;14.60;6.72;;;;;;;11.44;100.00;98396.19;5093918;28;20458;-47
2023/11/21 08:03:30;;;;;;;18.33;6.07;;;;;;;11.31;100.00;98390.00;5093884;28;20440;-46
2023/11/21 08:05:56;;;;;;;24.33;15.45;;;;;;;11.79;100.00;98396.50;5092639;28;20168;-47
2023/11/21 08:08:22;;;;;;;14.43;5.57;;;;;;;12.05;100.00;98387.59;5092169;28;20020;-47
2023/11/21 08:11:08;;;;;;;14.02;7.45;;;;;;;12.29;100.00;98393.06;5093477;28;20410;-47
2023/11/21 08:13:33;;;;;;;;;;;;;;;12.60;100.00;98389.47;5093829;28;20024;-47
2023/11/21 08:16:02;;;;;;;;;;;;;;;12.83;100.00;98391.41;5093614;28;19920;-47
2023/11/21 08:18:28;;;;;;;20.35;17.60;;;;;;;13.08;100.00;98398.38;5093229;28;19999;-47
2023/11/21 08:20:57;;;;;;;17.92;6.03;;;;;;;13.20;100.00;98394.00;5093310;28;20022;-47
2023/11/21 08:23:26;;;;;;;14.48;7.10;;;;;;;13.10;100.00;98391.06;5091915;28;20032;-47
2023/11/21 08:25:53;;;;;;;9.63;6.53;;;;;;;12.92;100.00;98392.72;5093178;28;20020;-46
2023/11/21 08:28:19;;;;;;;9.57;7.13;;;;;;;12.61;100.00;98385.00;5093072;28;20103;-46
2023/11/21 08:30:45;;;;;;;24.27;10.20;;;;;;;12.36;100.00;98399.06;5093094;28;20099;-46
2023/11/21 08:33:11;;;;;;;16.15;9.57;;;;;;;12.31;100.00;98391.81;5091708;28;20112;-46
2023/11/21 08:35:38;;;;;;;18.08;13.40;;;;;;;12.34;100.00;98395.84;5075081;28;20501;-45
2023/11/21 08:38:04;;;;;;;22.38;18.73;;;;;;;12.38;100.00;98392.53;5091643;28;20035;-46
2023/11/21 08:40:30;;;;;;;15.68;10.18;;;;;;;12.39;100.00;98394.16;5092865;28;20097;-46
2023/11/21 08:42:58;;;;;;;30.20;25.30;;;;;;;12.37;100.00;98401.47;5092853;28;20028;-46
2023/11/21 08:45:25;;;;;;;30.75;27.73;;;;;;;12.29;100.00;98395.69;5091526;28;20031;-46
2023/11/21 08:47:51;;;;;;;21.02;13.85;;;;;;;12.14;100.00;98396.84;5092742;28;20020;-46
2023/11/21 08:50:17;;;;;;;60.80;54.53;;;;;;;12.14;100.00;98396.03;5092660;28;20031;-46
2023/11/21 08:52:45;;;;;;;15.88;7.90;;;;;;;12.16;100.00;98401.91;5091630;28;20485;-46
2023/11/21 08:55:12;;;;;;;11.70;7.47;;;;;;;11.93;100.00;98399.88;5092571;28;20028;-46
2023/11/21 08:57:43;;;;;;;16.08;9.60;;;;;;;11.66;100.00;98397.44;5092633;28;20393;-46
2023/11/21 09:00:11;;;;;;;22.58;5.40;;;;;;;11.78;100.00;98393.09;5091286;28;20050;-46
2023/11/21 09:02:38;;;;;;;8.13;4.32;;;;;;;11.65;100.00;98401.09;5092646;28;20036;-46
2023/11/21 09:05:05;;;;;;;14.60;7.30;;;;;;;11.47;100.00;98403.63;5091113;28;20074;-46
2023/11/21 09:07:31;;;;;;;11.60;7.78;;;;;;;11.44;100.00;98401.44;5092694;28;20390;-46
2023/11/21 09:09:57;;;;;;;171.93;157.00;;;;;;;11.43;100.00;98405.91;5091081;28;20025;-46
2023/11/21 09:12:24;;;;;;;11.90;7.95;;;;;;;11.75;100.00;98409.31;5092322;28;20482;-46
2023/11/21 09:14:50;;;;;;;11.25;10.07;;;;;;;11.85;100.00;98403.56;5092093;28;20047;-46
2023/11/21 09:17:16;;;;;;;43.05;9.68;;;;;;;11.77;100.00;98407.25;5092251;28;20020;-46
2023/11/21 09:19:45;;;;;;;31.35;17.63;;;;;;;11.59;100.00;98401.94;5090974;28;20125;-46
2023/11/21 09:22:10;;;;;;;17.27;6.35;;;;;;;11.71;100.00;98399.41;5092214;28;20020;-46
2023/11/21 09:24:37;;;;;;;144.50;131.93;;;;;;;11.78;100.00;98400.16;5090867;28;20085;-46
2023/11/21 09:27:05;;;;;;;18.65;14.68;;;;;;;11.86;100.00;98392.00;5092087;28;20028;-46
2023/11/21 09:29:31;;;;;;;158.25;138.38;;;;;;;11.96;100.00;98402.06;5092009;28;20028;-46
2023/11/21 09:31:59;;;;;;;54.08;49.17;;;;;;;12.17;100.00;98403.47;5092089;28;20362;-46
2023/11/21 09:34:25;;;;;;;12.45;6.35;;;;;;;11.99;100.00;98405.09;5091912;28;20073;-46
2023/11/21 09:36:51;;;;;;;18.48;4.57;;;;;;;11.82;100.00;98408.44;5090669;28;20027;-46
2023/11/21 09:39:18;;;;;;;25.23;9.60;;;;;;;11.76;100.00;98408.28;5091991;28;20028;-46
2023/11/21 09:41:49;;;;;;;44.63;40.28;;;;;;;11.77;100.00;98403.81;5090680;28;20020;-46
2023/11/21 09:44:30;;;;;;;157.38;143.27;;;;;;;11.97;100.00;98403.66;5091977;28;20028;-46
2023/11/21 09:46:59;;;;;;;16.60;7.72;;;;;;;12.11;100.00;98406.97;5091897;28;20028;-46
2023/11/21 09:49:27;;;;;;;76.93;69.72;;;;;;;12.09;100.00;98404.59;5091858;28;20024;-46
2023/11/21 09:51:57;;;;;;;12.38;10.05;;;;;;;11.87;100.00;98408.59;5091830;28;20371;-46
2023/11/21 09:54:23;;;;;;;7.38;2.75;;;;;;;12.02;100.00;98413.56;5091717;28;20111;-46
2023/11/21 09:56:50;;;;;;;11.43;7.80;;;;;;;11.86;100.00;98413.03;5092107;28;20437;-46
2023/11/21 09:59:16;;;;;;;9.00;2.88;;;;;;;11.64;100.00;98417.06;5091735;28;20024;-46
2023/11/21 10:01:43;;;;;;;30.90;8.77;;;;;;;11.46;100.00;98421.22;5091767;28;20027;-46
2023/11/21 10:04:12;;;;;;;546.35;492.52;;;;;;;11.48;100.00;98418.38;5090380;28;20056;-46
2023/11/21 10:06:41;;;;;;;17.08;10.20;;;;;;;11.60;100.00;98432.47;5074064;28;20506;-46
2023/11/21 10:09:11;;;;;;;80.88;72.57;;;;;;;11.54;100.00;98428.06;5091615;28;20027;-46
2023/11/21 10:11:41;;;;;;;159.70;35.33;;;;;;;11.38;100.00;98429.38;5091761;28;20566;-46
2023/11/21 10:14:14;;;;;;;187.57;172.32;;;;;;;11.49;100.00;98428.69;5093741;28;20462;-46
2023/11/21 10:16:41;;;;;;;34.60;31.23;;;;;;;11.55;100.00;98429.66;5094485;28;20065;-46
2023/11/21 10:19:10;;;;;;;192.27;173.23;;;;;;;11.54;100.00;98422.78;5094460;28;20497;-46
2023/11/21 10:21:39;;;;;;;90.80;82.00;;;;;;;11.79;100.00;98423.63;5095674;28;20021;-46
2023/11/21 10:24:06;;;;;;;76.07;68.65;;;;;;;12.14;100.00;98422.34;5095628;28;20486;-46
2023/11/21 10:26:33;;;;;;;68.63;62.75;;;;;;;12.10;100.00;98424.59;5094255;28;20028;-46
2023/11/21 10:29:00;;;;;;;25.55;16.27;;;;;;;11.91;100.00;98418.50;5094223;28;20061;-46
2023/11/21 10:31:30;;;;;;;112.50;101.97;;;;;;;11.72;100.00;98433.38;5095442;28;20028;-46
2023/11/21 10:34:18;;;;;;;416.52;377.05;;;;;;;11.45;100.00;98437.19;5094264;28;20028;-46
2023/11/21 10:36:46;;;;;;;27.08;18.77;;;;;;;11.35;100.00;98421.91;5094050;28;20485;-46
2023/11/21 10:39:23;;;;;;;19.55;17.38;;;;;;;11.39;100.00;98426.53;5094083;28;20034;-46
2023/11/21 10:41:50;;;;;;;5.55;3.10;;;;;;;11.60;100.00;98428.00;5095534;28;20086;-46
2023/11/21 10:44:20;;;;;;;8.23;5.20;;;;;;;11.68;100.00;98424.31;5095219;28;20020;-46
2023/11/21 10:46:50;;;;;;;7.82;6.40;;;;;;;11.65;100.00;98423.91;5095174;28;20501;-46
2023/11/21 10:49:20;;;;;;;6.70;3.72;;;;;;;11.54;100.00;98422.78;5095122;28;20031;-46
2023/11/21 10:51:48;;;;;;;11.32;7.15;;;;;;;11.47;100.00;98425.47;5095060;28;20027;-46
2023/11/21 10:54:18;;;;;;;14.55;4.15;;;;;;;11.50;100.00;98426.88;5094973;28;20062;-46
2023/11/21 10:56:47;;;;;;;7.82;3.70;;;;;;;11.58;100.00;98421.34;5094868;28;20024;-46
2023/11/21 10:59:16;;;;;;;8.90;7.93;;;;;;;11.73;100.00;98406.09;5094925;28;20023;-46
2023/11/21 11:01:45;;;;;;;3.97;3.08;;;;;;;11.94;100.00;98401.50;5077310;28;20099;-46
2023/11/21 11:04:16;;;;;;;3.45;2.40;;;;;;;12.06;100.00;98404.22;5094809;28;20020;-46
2023/11/21 11:06:54;;;;;;;8.05;3.45;;;;;;;11.97;100.00;98409.75;5094678;28;20029;-46
2023/11/21 11:09:20;;;;;;;8.90;2.50;;;;;;;11.99;100.00;98401.63;5093469;28;20038;-47
2023/11/21 11:11:46;;;;;;;5.03;2.80;;;;;;;11.99;100.00;98412.97;5094657;28;20439;-47
2023/11/21 11:14:13;;;;;;;6.13;3.30;;;;;;;11.91;100.00;98405.34;5094308;28;20064;-47